createdAt,value
2019-01-19T00:01:13.572Z,38.03
2019-01-19T00:03:48.372Z,35.40
2019-01-19T00:06:23.062Z,41.00
2019-01-19T00:08:52.261Z,40.53
2019-01-19T00:11:24.471Z,57.43
2019-01-19T00:13:56.372Z,37.20
2019-01-19T00:16:34.168Z,33.90
2019-01-19T00:19:39.068Z,42.00
2019-01-19T00:22:22.761Z,35.73
2019-01-19T00:25:00.646Z,33.17
2019-01-19T00:27:35.438Z,39.87
2019-01-19T00:30:15.960Z,37.10
2019-01-19T00:32:56.669Z,36.20
2019-01-19T00:35:37.187Z,55.60
2019-01-19T00:38:32.691Z,43.23
2019-01-19T00:41:12.971Z,33.70
2019-01-19T00:43:43.148Z,35.23
2019-01-19T00:46:17.802Z,34.20
2019-01-19T00:48:52.692Z,39.63
2019-01-19T00:51:24.606Z,37.73
2019-01-19T00:53:59.338Z,33.37
2019-01-19T00:56:49.163Z,34.07
2019-01-19T00:59:23.793Z,34.50
2019-01-19T01:02:22.561Z,34.33
2019-01-19T01:04:54.690Z,47.73
2019-01-19T01:07:26.492Z,39.70
2019-01-19T01:10:10.194Z,36.93
2019-01-19T01:13:07.083Z,34.50
2019-01-19T01:16:07.055Z,46.77
2019-01-19T01:18:41.714Z,33.80
2019-01-19T01:21:26.080Z,32.70
2019-01-19T01:24:06.415Z,40.73
2019-01-19T01:26:56.636Z,40.40
2019-01-19T01:29:34.198Z,39.23
2019-01-19T01:32:11.678Z,35.10
2019-01-19T01:35:01.255Z,30.70
2019-01-19T01:37:39.192Z,34.83
2019-01-19T01:40:25.928Z,38.97
2019-01-19T01:43:12.817Z,36.47
2019-01-19T01:46:12.665Z,31.00
2019-01-19T01:48:47.015Z,33.60
2019-01-19T01:51:24.736Z,31.43
2019-01-19T01:54:02.587Z,33.73
2019-01-19T01:56:31.466Z,36.50
2019-01-19T01:59:12.303Z,32.13
2019-01-19T02:01:44.482Z,31.77
2019-01-19T02:04:31.204Z,33.10
2019-01-19T02:07:19.010Z,32.40
2019-01-19T02:10:14.517Z,34.73
2019-01-19T02:12:46.783Z,34.47
2019-01-19T02:15:39.278Z,32.63
2019-01-19T02:18:44.067Z,34.10
2019-01-19T02:21:33.888Z,33.67
2019-01-19T02:24:15.051Z,34.73
2019-01-19T02:27:04.903Z,32.43
2019-01-19T02:29:51.410Z,32.60
2019-01-19T02:32:48.107Z,30.10
2019-01-19T02:35:31.486Z,29.57
2019-01-19T02:38:18.198Z,28.87
2019-01-19T02:40:56.105Z,33.20
2019-01-19T02:43:36.826Z,35.13
2019-01-19T02:46:20.870Z,35.73
2019-01-19T02:49:04.651Z,32.43
2019-01-19T02:51:48.431Z,29.60
2019-01-19T02:54:44.215Z,31.87
2019-01-19T02:57:27.593Z,27.93
2019-01-19T03:00:21.865Z,30.17
2019-01-19T03:03:11.232Z,31.50
2019-01-19T03:05:56.091Z,27.80
2019-01-19T03:08:43.318Z,29.13
2019-01-19T03:11:21.029Z,33.13
2019-01-19T03:14:01.528Z,25.80
2019-01-19T03:16:49.350Z,27.13
2019-01-19T03:19:38.787Z,30.70
2019-01-19T03:22:25.659Z,29.57
2019-01-19T03:25:03.074Z,27.53
2019-01-19T03:27:43.593Z,32.37
2019-01-19T03:30:46.610Z,26.80
2019-01-19T03:33:39.082Z,32.17
2019-01-19T03:36:28.751Z,27.83
2019-01-19T03:39:05.129Z,35.23
2019-01-19T03:41:43.340Z,23.60
2019-01-19T03:44:24.186Z,32.20
2019-01-19T03:47:16.948Z,28.77
2019-01-19T03:50:07.028Z,30.97
2019-01-19T03:52:40.172Z,26.40
2019-01-19T03:55:44.631Z,31.47
2019-01-19T03:58:35.892Z,25.13
2019-01-19T04:01:19.985Z,25.30
2019-01-19T04:04:00.079Z,29.53
2019-01-19T04:06:32.325Z,27.20
2019-01-19T04:09:21.990Z,30.17
2019-01-19T04:12:09.894Z,29.80
2019-01-19T04:14:53.595Z,28.80
2019-01-19T04:17:44.641Z,28.93
2019-01-19T04:20:16.372Z,30.80
2019-01-19T04:22:45.697Z,30.43
2019-01-19T04:25:17.592Z,28.27
2019-01-19T04:27:46.863Z,28.10
2019-01-19T04:30:16.114Z,27.43
2019-01-19T04:32:45.245Z,27.03
2019-01-19T04:35:14.487Z,34.03
2019-01-19T04:37:43.338Z,24.10
2019-01-19T04:40:12.911Z,28.10
2019-01-19T04:42:43.085Z,31.90
2019-01-19T04:45:11.870Z,30.27
2019-01-19T04:47:40.728Z,25.10
2019-01-19T04:50:11.577Z,28.20
2019-01-19T04:52:40.391Z,24.40
2019-01-19T04:55:09.450Z,27.30
2019-01-19T04:57:38.296Z,30.43
2019-01-19T05:00:18.718Z,29.30
2019-01-19T05:02:47.549Z,26.00
2019-01-19T05:05:16.331Z,27.50
2019-01-19T05:07:45.173Z,28.63
2019-01-19T05:10:14.625Z,24.90
2019-01-19T05:12:43.412Z,31.90
2019-01-19T05:15:17.602Z,25.60
2019-01-19T05:17:46.733Z,28.13
2019-01-19T05:20:15.713Z,26.10
2019-01-19T05:22:44.912Z,28.80
2019-01-19T05:25:15.142Z,26.50
2019-01-19T05:27:44.358Z,30.50
2019-01-19T05:30:18.630Z,25.30
2019-01-19T05:32:47.647Z,26.53
2019-01-19T05:35:16.595Z,26.00
2019-01-19T05:37:45.818Z,22.00
2019-01-19T05:40:14.715Z,23.03
2019-01-19T05:42:43.602Z,24.73
2019-01-19T05:45:14.084Z,25.83
2019-01-19T05:47:43.352Z,25.53
2019-01-19T05:50:15.097Z,27.27
2019-01-19T05:52:44.317Z,22.00
2019-01-19T05:55:13.606Z,24.00
2019-01-19T05:57:42.482Z,21.03
2019-01-19T06:00:14.435Z,22.80
2019-01-19T06:02:43.541Z,30.30
2019-01-19T06:05:12.370Z,16.43
2019-01-19T06:07:41.726Z,23.63
2019-01-19T06:10:16.098Z,18.73
2019-01-19T06:12:44.853Z,30.13
2019-01-19T06:15:15.408Z,19.73
2019-01-19T06:17:44.181Z,21.50
2019-01-19T06:20:17.741Z,19.83
2019-01-19T06:22:46.562Z,20.47
2019-01-19T06:25:16.288Z,22.57
2019-01-19T06:27:45.174Z,18.80
2019-01-19T06:30:21.442Z,24.60
2019-01-19T06:32:50.223Z,25.90
2019-01-19T06:35:19.107Z,27.70
2019-01-19T06:37:48.365Z,24.93
2019-01-19T06:40:18.600Z,28.97
2019-01-19T06:42:47.533Z,28.27
2019-01-19T06:45:20.976Z,23.97
2019-01-19T06:47:50.101Z,20.43
2019-01-19T06:50:19.618Z,21.97
2019-01-19T06:52:48.920Z,26.77
2019-01-19T06:55:20.611Z,26.73
2019-01-19T06:57:49.401Z,24.63
2019-01-19T07:00:19.542Z,25.30
2019-01-19T07:02:48.294Z,30.57
2019-01-19T07:05:17.075Z,21.00
2019-01-19T07:07:45.972Z,21.50
2019-01-19T07:10:24.111Z,24.83
2019-01-19T07:12:52.834Z,25.83
2019-01-19T07:15:21.652Z,19.93
2019-01-19T07:17:50.449Z,18.70
2019-01-19T07:20:24.836Z,20.37
2019-01-19T07:22:53.649Z,18.87
2019-01-19T07:25:22.881Z,17.03
2019-01-19T07:27:51.613Z,16.57
2019-01-19T07:30:20.622Z,16.23
2019-01-19T07:32:49.527Z,19.40
2019-01-19T07:35:18.478Z,21.13
2019-01-19T07:37:47.346Z,18.90
2019-01-19T07:40:18.062Z,16.80
2019-01-19T07:42:49.270Z,18.93
2019-01-19T07:45:18.464Z,18.93
2019-01-19T07:47:47.293Z,20.60
2019-01-19T07:50:19.457Z,20.63
2019-01-19T07:52:48.363Z,17.30
2019-01-19T07:55:18.664Z,14.00
2019-01-19T07:57:47.905Z,14.70
2019-01-19T08:00:28.805Z,16.97
2019-01-19T08:02:57.669Z,16.80
2019-01-19T08:05:27.057Z,15.40
2019-01-19T08:07:56.084Z,18.07
2019-01-19T08:10:24.902Z,19.17
2019-01-19T08:12:53.810Z,17.10
2019-01-19T08:15:24.783Z,13.73
2019-01-19T08:17:53.716Z,16.30
2019-01-19T08:20:22.540Z,14.87
2019-01-19T08:22:51.504Z,15.73
2019-01-19T08:25:20.736Z,20.47
2019-01-19T08:27:49.659Z,19.57
2019-01-19T08:30:23.623Z,19.30
2019-01-19T08:32:52.536Z,16.50
2019-01-19T08:35:21.896Z,19.90
2019-01-19T08:37:50.843Z,17.37
2019-01-19T08:40:35.729Z,21.63
2019-01-19T08:43:08.930Z,19.47
2019-01-19T08:45:37.455Z,16.43
2019-01-19T08:48:06.431Z,19.03
2019-01-19T08:50:35.218Z,19.83
2019-01-19T08:53:04.232Z,15.03
2019-01-19T08:55:33.009Z,17.77
2019-01-19T08:58:01.854Z,17.23
2019-01-19T09:00:30.628Z,21.73
2019-01-19T09:02:59.976Z,16.10
2019-01-19T09:05:28.779Z,14.27
2019-01-19T09:07:57.636Z,16.40
2019-01-19T09:10:26.506Z,16.10
2019-01-19T09:12:55.366Z,21.00
2019-01-19T09:15:25.945Z,15.90
2019-01-19T09:17:54.814Z,16.73
2019-01-19T09:20:24.044Z,17.00
2019-01-19T09:23:02.959Z,15.53
2019-01-19T09:25:31.857Z,16.73
2019-01-19T09:28:01.088Z,17.10
2019-01-19T09:30:29.949Z,18.47
2019-01-19T09:32:59.769Z,15.40
2019-01-19T09:35:28.657Z,17.13
2019-01-19T09:37:57.609Z,17.47
2019-01-19T09:40:26.918Z,13.70
2019-01-19T09:42:55.663Z,18.40
2019-01-19T09:45:24.543Z,16.97
2019-01-19T09:47:53.862Z,15.27
2019-01-19T09:50:22.880Z,14.93
2019-01-19T09:52:51.719Z,13.43
2019-01-19T09:55:20.615Z,17.43
2019-01-19T09:57:50.016Z,13.77
2019-01-19T10:00:27.686Z,16.00
2019-01-19T10:02:57.175Z,16.83
2019-01-19T10:05:29.509Z,15.83
2019-01-19T10:07:58.509Z,14.30
2019-01-19T10:10:27.837Z,12.67
2019-01-19T10:12:56.952Z,12.70
2019-01-19T10:15:30.588Z,11.73
2019-01-19T10:17:56.775Z,14.83
2019-01-19T10:20:30.349Z,15.20
2019-01-19T10:22:59.840Z,13.70
2019-01-19T10:25:28.702Z,12.27
2019-01-19T10:27:57.633Z,14.07
2019-01-19T10:30:31.718Z,12.70
2019-01-19T10:33:00.712Z,13.00
2019-01-19T10:35:29.662Z,16.10
2019-01-19T10:37:59.426Z,13.60
2019-01-19T10:40:28.916Z,15.13
2019-01-19T10:42:57.703Z,19.20
2019-01-19T10:45:28.812Z,12.53
2019-01-19T10:47:58.090Z,11.33
2019-01-19T10:50:26.945Z,20.23
2019-01-19T10:52:56.055Z,20.27
2019-01-19T10:55:26.041Z,31.70
2019-01-19T10:57:55.278Z,21.00
2019-01-19T11:00:37.260Z,15.13
2019-01-19T11:03:06.512Z,17.33
2019-01-19T11:05:35.447Z,15.60
2019-01-19T11:08:06.051Z,10.57
2019-01-19T11:10:35.869Z,9.60
2019-01-19T11:13:07.096Z,9.50
2019-01-19T11:15:36.176Z,18.80
2019-01-19T11:18:06.072Z,17.20
2019-01-19T11:20:39.308Z,12.27
2019-01-19T11:23:08.621Z,13.60
2019-01-19T11:25:37.458Z,10.43
2019-01-19T11:28:06.417Z,10.07
2019-01-19T11:30:35.577Z,11.73
2019-01-19T11:33:04.628Z,9.53
2019-01-19T11:35:33.604Z,9.63
2019-01-19T11:38:02.484Z,14.07
2019-01-19T11:40:36.158Z,10.10
2019-01-19T11:43:06.560Z,8.53
2019-01-19T11:45:35.880Z,8.43
2019-01-19T11:48:05.970Z,6.87
2019-01-19T11:50:34.781Z,10.17
2019-01-19T11:53:03.638Z,9.93
2019-01-19T11:55:32.530Z,8.00
2019-01-19T11:58:02.692Z,10.30
2019-01-19T12:00:34.407Z,7.20
2019-01-19T12:03:03.514Z,12.13
2019-01-19T12:05:32.397Z,9.77
2019-01-19T12:08:03.992Z,7.30
2019-01-19T12:10:33.017Z,8.73
2019-01-19T12:13:01.875Z,9.23
2019-01-19T12:15:31.040Z,8.90
2019-01-19T12:17:59.824Z,8.70
2019-01-19T12:20:31.225Z,10.10
2019-01-19T12:23:00.032Z,9.27
2019-01-19T12:25:29.387Z,8.47
2019-01-19T12:27:59.800Z,9.30
2019-01-19T12:30:30.588Z,9.13
2019-01-19T12:32:59.394Z,15.37
2019-01-19T12:35:28.405Z,11.93
2019-01-19T12:37:57.967Z,10.53
2019-01-19T12:40:29.347Z,9.33
2019-01-19T12:43:03.558Z,7.80
2019-01-19T12:45:38.396Z,9.27
2019-01-19T12:48:07.046Z,8.80
2019-01-19T12:50:35.914Z,7.27
2019-01-19T12:53:05.139Z,9.20
2019-01-19T12:55:33.897Z,8.37
2019-01-19T12:58:02.725Z,8.70
2019-01-19T13:00:31.900Z,11.70
2019-01-19T13:03:00.721Z,8.70
2019-01-19T13:05:44.188Z,9.63
2019-01-19T13:08:18.990Z,11.50
2019-01-19T13:11:10.249Z,9.53
2019-01-19T13:13:41.721Z,18.37
2019-01-19T13:16:38.661Z,11.07
2019-01-19T13:19:16.050Z,11.83
2019-01-19T13:22:07.686Z,11.57
2019-01-19T13:24:55.881Z,9.90
2019-01-19T13:27:33.363Z,12.27
2019-01-19T13:30:36.355Z,8.40
2019-01-19T13:33:13.843Z,7.70
2019-01-19T13:35:49.061Z,9.10
2019-01-19T13:38:49.391Z,9.27
2019-01-19T13:41:37.410Z,7.73
2019-01-19T13:44:25.201Z,10.00
2019-01-19T13:47:02.822Z,13.00
2019-01-19T13:49:49.019Z,10.80
2019-01-19T13:52:26.591Z,13.73
2019-01-19T13:55:10.292Z,10.37
2019-01-19T13:57:44.730Z,9.70
2019-01-19T14:00:28.360Z,11.17
2019-01-19T14:03:11.946Z,10.63
2019-01-19T14:05:55.586Z,10.13
2019-01-19T14:08:33.252Z,13.20
2019-01-19T14:11:31.937Z,13.50
2019-01-19T14:14:22.802Z,13.60
2019-01-19T14:17:06.877Z,12.60
2019-01-19T14:19:50.761Z,15.77
2019-01-19T14:22:25.347Z,10.93
2019-01-19T14:25:08.803Z,11.80
2019-01-19T14:27:43.267Z,12.00
2019-01-19T14:30:30.765Z,10.47
2019-01-19T14:33:17.192Z,10.30
2019-01-19T14:35:58.273Z,8.90
2019-01-19T14:38:33.011Z,11.73
2019-01-19T14:41:22.531Z,8.77
2019-01-19T14:43:54.330Z,17.60
2019-01-19T14:46:43.822Z,11.37
2019-01-19T14:49:33.870Z,12.20
2019-01-19T14:52:18.115Z,17.70
2019-01-19T14:55:18.410Z,10.07
2019-01-19T14:58:02.335Z,11.57
2019-01-19T15:00:39.874Z,13.00
2019-01-19T15:03:30.903Z,13.20
2019-01-19T15:06:22.260Z,14.40
2019-01-19T15:09:16.329Z,11.93
2019-01-19T15:11:59.818Z,13.50
2019-01-19T15:14:54.242Z,21.13
2019-01-19T15:17:43.051Z,12.60
2019-01-19T15:20:33.330Z,21.53
2019-01-19T15:23:14.114Z,18.00
2019-01-19T15:25:48.666Z,16.13
2019-01-19T15:28:23.474Z,11.67
2019-01-19T15:30:55.439Z,17.33
2019-01-19T15:33:29.770Z,17.63
2019-01-19T15:36:10.168Z,14.50
2019-01-19T15:38:56.468Z,17.20
2019-01-19T15:41:36.814Z,18.93
2019-01-19T15:44:17.207Z,18.33
2019-01-19T15:47:16.466Z,18.37
2019-01-19T15:49:53.727Z,18.40
2019-01-19T15:52:40.109Z,15.23
2019-01-19T15:55:17.503Z,24.03
2019-01-19T15:57:51.971Z,16.87
2019-01-19T16:00:32.655Z,14.90
2019-01-19T16:03:18.950Z,22.93
2019-01-19T16:05:56.750Z,38.07
2019-01-19T16:08:28.593Z,17.70
2019-01-19T16:11:14.942Z,31.60
2019-01-19T16:13:58.323Z,39.77
2019-01-19T16:16:45.376Z,24.90
2019-01-19T16:19:45.727Z,28.50
2019-01-19T16:22:33.570Z,16.47
2019-01-19T16:25:07.938Z,14.80
2019-01-19T16:27:58.995Z,15.30
2019-01-19T16:30:33.913Z,12.03
2019-01-19T16:33:21.883Z,11.17
2019-01-19T16:35:59.446Z,13.47
2019-01-19T16:38:59.225Z,13.30
2019-01-19T16:41:51.768Z,17.27
2019-01-19T16:44:32.169Z,18.63
2019-01-19T16:47:20.020Z,22.47
2019-01-19T16:49:51.829Z,17.00
2019-01-19T16:52:29.255Z,17.13
2019-01-19T16:55:07.239Z,17.07
2019-01-19T16:58:03.154Z,19.37
2019-01-19T17:00:53.632Z,15.87
2019-01-19T17:03:43.456Z,15.93
2019-01-19T17:06:15.211Z,14.40
2019-01-19T17:09:19.528Z,16.60
2019-01-19T17:12:06.142Z,17.43
2019-01-19T17:14:46.770Z,17.57
2019-01-19T17:17:34.691Z,19.00
2019-01-19T17:20:15.131Z,20.00
2019-01-19T17:22:46.880Z,27.77
2019-01-19T17:25:46.828Z,22.90
2019-01-19T17:28:24.403Z,35.00
2019-01-19T17:31:17.109Z,36.20
2019-01-19T17:34:09.563Z,28.77
2019-01-19T17:36:41.261Z,22.90
2019-01-19T17:39:44.512Z,22.23
2019-01-19T17:42:28.123Z,25.83
2019-01-19T17:45:15.965Z,22.60
2019-01-19T17:48:09.087Z,22.63
2019-01-19T17:50:50.016Z,20.37
2019-01-19T17:53:44.912Z,23.00
2019-01-19T17:56:32.138Z,17.77
2019-01-19T17:59:09.307Z,18.20
2019-01-19T18:01:43.752Z,22.77
2019-01-19T18:04:27.036Z,18.03
2019-01-19T18:07:01.486Z,23.70
2019-01-19T18:09:47.589Z,23.33
2019-01-19T18:12:21.234Z,22.73
2019-01-19T18:15:13.758Z,26.80
2019-01-19T18:18:00.375Z,19.87
2019-01-19T18:20:40.298Z,13.90
2019-01-19T18:23:32.835Z,14.00
2019-01-19T18:26:18.953Z,17.70
2019-01-19T18:28:58.031Z,19.63
2019-01-19T18:31:59.495Z,21.43
2019-01-19T18:34:36.905Z,23.07
2019-01-19T18:37:24.734Z,19.20
2019-01-19T18:40:08.402Z,13.13
2019-01-19T18:42:58.008Z,13.47
2019-01-19T18:45:44.605Z,14.10
2019-01-19T18:48:19.611Z,13.53
2019-01-19T18:51:03.719Z,17.00
2019-01-19T18:53:44.209Z,11.13
2019-01-19T18:56:24.597Z,14.07
2019-01-19T18:59:07.876Z,14.30
2019-01-19T19:01:48.238Z,18.50
2019-01-19T19:04:29.079Z,17.17
2019-01-19T19:07:09.709Z,18.50
2019-01-19T19:09:47.143Z,18.60
2019-01-19T19:12:21.615Z,23.03
2019-01-19T19:14:56.036Z,30.60
2019-01-19T19:17:43.597Z,29.87
2019-01-19T19:20:15.219Z,30.30
2019-01-19T19:22:55.713Z,29.83
2019-01-19T19:25:27.514Z,26.50
2019-01-19T19:28:17.999Z,26.50
2019-01-19T19:30:58.402Z,29.10
2019-01-19T19:33:41.818Z,60.27
2019-01-19T19:36:40.079Z,58.70
2019-01-19T19:39:20.625Z,61.47
2019-01-19T19:41:57.870Z,56.93
2019-01-19T19:44:50.064Z,38.37
2019-01-19T19:47:36.455Z,31.77
2019-01-19T19:50:25.811Z,27.83
2019-01-19T19:52:54.274Z,25.63
2019-01-19T19:55:21.939Z,25.70
2019-01-19T19:57:50.727Z,23.23
2019-01-19T20:00:19.243Z,24.73
2019-01-19T20:02:47.778Z,22.40
2019-01-19T20:05:17.087Z,22.00
2019-01-19T20:07:45.525Z,24.50
2019-01-19T20:10:17.279Z,21.50
2019-01-19T20:12:44.545Z,24.80
2019-01-19T20:15:13.551Z,18.57
2019-01-19T20:17:42.077Z,18.97
2019-01-19T20:20:11.454Z,22.27
2019-01-19T20:22:40.260Z,27.47
2019-01-19T20:25:08.954Z,20.67
2019-01-19T20:27:37.409Z,24.60
2019-01-19T20:30:18.150Z,22.20
2019-01-19T20:32:46.633Z,21.90
2019-01-19T20:35:15.185Z,25.47
2019-01-19T20:37:43.742Z,23.57
2019-01-19T20:40:12.306Z,18.10
2019-01-19T20:42:40.771Z,21.17
2019-01-19T20:45:12.080Z,20.80
2019-01-19T20:47:40.534Z,19.47
2019-01-19T20:50:11.486Z,19.27
2019-01-19T20:52:40.298Z,17.73
2019-01-19T20:55:10.645Z,17.70
2019-01-19T20:57:39.164Z,20.00
2019-01-19T21:00:14.341Z,21.53
2019-01-19T21:02:42.895Z,17.83
2019-01-19T21:05:11.556Z,17.37
2019-01-19T21:07:40.111Z,18.70
2019-01-19T21:10:08.763Z,18.20
2019-01-19T21:12:37.289Z,21.80
2019-01-19T21:15:11.514Z,18.90
2019-01-19T21:17:40.096Z,18.87
2019-01-19T21:20:11.102Z,18.93
2019-01-19T21:22:39.693Z,16.57
2019-01-19T21:25:10.021Z,17.77
2019-01-19T21:27:38.586Z,17.00
2019-01-19T21:30:10.505Z,19.70
2019-01-19T21:32:39.116Z,22.83
2019-01-19T21:35:08.011Z,17.63
2019-01-19T21:37:36.793Z,25.10
2019-01-19T21:40:11.084Z,16.90
2019-01-19T21:42:39.805Z,18.13
2019-01-19T21:45:11.748Z,16.77
2019-01-19T21:47:40.937Z,20.50
2019-01-19T21:50:11.460Z,33.60
2019-01-19T21:52:40.208Z,27.70
2019-01-19T21:55:09.935Z,25.10
2019-01-19T21:57:38.580Z,27.30
2019-01-19T22:00:16.213Z,24.73
2019-01-19T22:02:45.419Z,24.93
2019-01-19T22:05:14.219Z,24.20
2019-01-19T22:07:43.276Z,18.40
2019-01-19T22:10:20.001Z,18.73
2019-01-19T22:12:48.814Z,17.37
2019-01-19T22:15:18.692Z,23.63
2019-01-19T22:17:47.497Z,22.87
2019-01-19T22:20:17.891Z,18.47
2019-01-19T22:22:47.611Z,23.53
2019-01-19T22:25:17.046Z,18.13
2019-01-19T22:27:49.241Z,22.53
2019-01-19T22:30:22.646Z,17.40
2019-01-19T22:32:53.534Z,16.37
2019-01-19T22:35:24.309Z,18.30
2019-01-19T22:37:53.096Z,21.90
2019-01-19T22:40:21.987Z,19.13
2019-01-19T22:42:51.927Z,16.90
2019-01-19T22:45:20.716Z,18.63
2019-01-19T22:47:49.459Z,16.13
2019-01-19T22:50:19.089Z,18.00
2019-01-19T22:52:48.237Z,17.80
2019-01-19T22:55:17.260Z,18.83
2019-01-19T22:57:45.934Z,17.30
2019-01-19T23:00:26.983Z,18.23
2019-01-19T23:02:56.097Z,16.87
2019-01-19T23:05:25.168Z,16.23
2019-01-19T23:07:53.916Z,18.10
2019-01-19T23:10:22.735Z,22.13
2019-01-19T23:12:51.794Z,16.17
2019-01-19T23:15:20.666Z,18.40
2019-01-19T23:17:49.385Z,18.00
2019-01-19T23:20:18.238Z,18.30
2019-01-19T23:22:47.454Z,18.23
2019-01-19T23:25:16.177Z,19.90
2019-01-19T23:27:45.397Z,18.30
2019-01-19T23:30:15.784Z,18.53
2019-01-19T23:32:44.933Z,19.97
2019-01-19T23:35:14.167Z,19.00
2019-01-19T23:37:43.265Z,19.50
2019-01-19T23:40:13.549Z,21.37
2019-01-19T23:42:47.049Z,22.07
2019-01-19T23:45:13.034Z,25.33
2019-01-19T23:47:42.216Z,22.10
2019-01-19T23:50:11.418Z,26.93
2019-01-19T23:52:40.585Z,25.00
2019-01-19T23:55:09.403Z,23.60
2019-01-19T23:57:38.427Z,19.93
